Terminal Aerodrome Forecast
Issued by NWS

Home | Current Version | Previous Version | Text Only | Print | Product List | Glossary On
Versions: 1 2 3 4 5 6 7 8 9 10 11 12 13 14 15 16
000
FTUS43 KTOP 092300
TAFMHK
TAF
KMHK 092320Z 1000/1024 13006KT P6SM FEW070 BKN150
     FM100500 13005KT P6SM -TSRA SCT030 BKN080CB
     FM101100 15012G20KT P6SM BKN080 PROB30 1011/1015 P6SM -TSRA
      BKN060CB=

USA.gov is the U.S. government's official web portal to all federal, state and local government web resources and services.